Time;durP1;ratioP1;P1;durP2;ratioP2;P2;SDS_P1;SDS_P2;PMS_P1;PMS_P2;Temp;Humidity;BMP_temperature;BMP_pressure;BME280_temperature;BME280_humidity;BME280_pressure;Samples;Min_cycle;Max_cycle;Signal;HPM_P1;HPM_P2
2023/08/04 00:01:57;;;;;;;;;;;;;;;;;;5001277;28;19929;-67
2023/08/04 00:04:24;;;;;;;;;;;;;;;;;;4998368;28;20369;-67
2023/08/04 00:06:51;;;;;;;;;;;;;;;;;;5003750;28;19925;-68
2023/08/04 00:09:18;;;;;;;;;;;;;;;;;;5002917;28;20569;-68
2023/08/04 00:11:45;;;;;;;;;;;;;;;;;;5001174;28;19926;-67
2023/08/04 00:14:13;;;;;;;;;;;;;;;;;;5000641;28;19926;-68
2023/08/04 00:16:40;;;;;;;;;;;;;;;;;;4997044;28;19936;-67
2023/08/04 00:19:07;;;;;;;;;;;;;;;;;;5011207;28;20377;-67
2023/08/04 00:21:36;;;;;;;;;;;;;;;;;;4998347;28;20698;-66
2023/08/04 00:24:03;;;;;;;;;;;;;;;;;;4998287;28;20356;-67
2023/08/04 00:26:31;;;;;;;;;;;;;;;;;;4993138;28;19925;-67
2023/08/04 00:28:58;;;;;;;;;;;;;;;;;;5008673;28;20459;-67
2023/08/04 00:31:25;;;;;;;;;;;;;;;;;;5002673;28;19976;-67
2023/08/04 00:33:52;;;;;;;;;;;;;;;;;;5006505;28;19925;-67
2023/08/04 00:36:19;;;;;;;;;;;;;;;;;;5001017;28;19929;-67
2023/08/04 00:38:46;;;;;;;;;;;;;;;;;;5004468;28;19925;-67
2023/08/04 00:41:13;;;;;;;;;;;;;;;;;;4993619;28;19933;-67
2023/08/04 00:43:40;;;;;;;;;;;;;;;;;;4993445;28;19977;-66
2023/08/04 00:46:07;;;;;;;;;;;;;;;;;;4995417;28;19980;-66
2023/08/04 00:48:35;;;;;;;;;;;;;;;;;;4998540;28;19926;-66
2023/08/04 00:51:02;;;;;;;;;;;;;;;;;;5011675;28;19925;-67
2023/08/04 00:53:29;;;;;;;;;;;;;;;;;;4997142;28;19953;-66
2023/08/04 00:55:56;;;;;;;;;;;;;;;;;;4997229;28;19926;-66
2023/08/04 00:58:23;;;;;;;;;;;;;;;;;;4997124;28;19926;-66
2023/08/04 01:00:50;;;;;;;;;;;;;;;;;;4997012;28;19985;-67
2023/08/04 01:03:17;;;;;;;;;;;;;;;;;;4996503;28;19929;-67
2023/08/04 01:05:44;;;;;;;;;;;;;;;;;;5010096;28;19951;-66
2023/08/04 01:08:11;;;;;;;;;;;;;;;;;;5006232;28;19926;-67
2023/08/04 01:10:38;;;;;;;;;;;;;;;;;;5010756;28;20352;-68
2023/08/04 01:13:05;;;;;;;;;;;;;;;;;;5010803;28;20005;-67
2023/08/04 01:15:32;;;;;;;;;;;;;;;;;;5000364;28;19926;-66
2023/08/04 01:17:59;;;;;;;;;;;;;;;;;;4996566;28;19926;-67
2023/08/04 01:20:26;;;;;;;;;;;;;;;;;;4996046;28;19988;-67
2023/08/04 01:22:53;;;;;;;;;;;;;;;;;;4999977;28;19926;-67
2023/08/04 01:25:20;;;;;;;;;;;;;;;;;;4995865;28;20004;-67
2023/08/04 01:27:47;;;;;;;;;;;;;;;;;;4996101;28;20425;-67
2023/08/04 01:30:14;;;;;;;;;;;;;;;;;;4998041;28;19926;-67
2023/08/04 01:32:41;;;;;;;;;;;;;;;;;;5000328;28;19984;-66
2023/08/04 01:35:08;;;;;;;;;;;;;;;;;;4994406;28;20345;-67
2023/08/04 01:37:35;;;;;;;;;;;;;;;;;;4996772;28;19972;-67
2023/08/04 01:40:02;;;;;;;;;;;;;;;;;;4995620;28;20302;-67
2023/08/04 01:42:29;;;;;;;;;;;;;;;;;;4997016;28;19972;-67
2023/08/04 01:44:56;;;;;;;;;;;;;;;;;;4996629;28;19952;-67
2023/08/04 01:47:23;;;;;;;;;;;;;;;;;;4994907;28;19926;-67
2023/08/04 01:49:50;;;;;;;;;;;;;;;;;;4998185;28;20004;-67
2023/08/04 01:52:17;;;;;;;;;;;;;;;;;;5000072;28;20278;-67
2023/08/04 01:54:44;;;;;;;;;;;;;;;;;;5006055;28;19929;-67
2023/08/04 01:57:11;;;;;;;;;;;;;;;;;;5011492;28;19948;-67
2023/08/04 01:59:38;;;;;;;;;;;;;;;;;;5011860;28;20393;-67
2023/08/04 02:02:05;;;;;;;;;;;;;;;;;;5008256;28;19925;-67
2023/08/04 02:04:32;;;;;;;;;;;;;;;;;;5009784;28;20338;-66
2023/08/04 02:06:59;;;;;;;;;;;;;;;;;;5009670;28;20048;-67
2023/08/04 02:09:27;;;;;;;;;;;;;;;;;;5011315;28;19958;-67
2023/08/04 02:11:54;;;;;;;;;;;;;;;;;;5010843;28;19929;-67
2023/08/04 02:14:22;;;;;;;;;;;;;;;;;;5009348;28;19929;-66
2023/08/04 02:16:49;;;;;;;;;;;;;;;;;;5006372;28;19925;-67
2023/08/04 02:19:16;;;;;;;;;;;;;;;;;;5011106;28;20278;-67
2023/08/04 02:21:43;;;;;;;;;;;;;;;;;;5011035;28;19925;-67
2023/08/04 02:24:10;;;;;;;;;;;;;;;;;;5011335;28;19926;-67
2023/08/04 02:26:37;;;;;;;;;;;;;;;;;;5008686;28;19925;-67
2023/08/04 02:29:04;;;;;;;;;;;;;;;;;;5014035;28;20435;-67
2023/08/04 02:31:32;;;;;;;;;;;;;;;;;;5015459;28;19991;-67
2023/08/04 02:33:59;;;;;;;;;;;;;;;;;;5014578;28;19933;-67
2023/08/04 02:36:26;;;;;;;;;;;;;;;;;;5012196;28;19953;-67
2023/08/04 02:38:53;;;;;;;;;;;;;;;;;;5015367;28;19929;-67
2023/08/04 02:41:20;;;;;;;;;;;;;;;;;;5015669;28;19972;-67
2023/08/04 02:43:47;;;;;;;;;;;;;;;;;;5013999;28;19933;-66
2023/08/04 02:46:14;;;;;;;;;;;;;;;;;;5012239;28;19930;-67
2023/08/04 02:48:41;;;;;;;;;;;;;;;;;;5012935;28;20520;-67
2023/08/04 02:51:08;;;;;;;;;;;;;;;;;;5014812;28;19933;-67
2023/08/04 02:53:35;;;;;;;;;;;;;;;;;;5013994;28;19984;-66
2023/08/04 02:56:02;;;;;;;;;;;;;;;;;;5010887;28;19980;-67
2023/08/04 02:58:29;;;;;;;;;;;;;;;;;;5013542;28;19972;-67
2023/08/04 03:00:56;;;;;;;;;;;;;;;;;;5012131;28;19926;-67
2023/08/04 03:03:23;;;;;;;;;;;;;;;;;;5011063;28;19981;-67
2023/08/04 03:05:50;;;;;;;;;;;;;;;;;;5008775;28;19988;-67
2023/08/04 03:08:17;;;;;;;;;;;;;;;;;;5007807;28;19957;-67
2023/08/04 03:10:44;;;;;;;;;;;;;;;;;;5011334;28;19929;-67
2023/08/04 03:13:11;;;;;;;;;;;;;;;;;;5013296;28;19930;-67
2023/08/04 03:15:38;;;;;;;;;;;;;;;;;;5014937;28;20392;-67
2023/08/04 03:18:05;;;;;;;;;;;;;;;;;;5013989;28;19926;-67
2023/08/04 03:20:32;;;;;;;;;;;;;;;;;;5013273;28;19929;-67
2023/08/04 03:22:59;;;;;;;;;;;;;;;;;;5013747;28;19933;-67
2023/08/04 03:25:26;;;;;;;;;;;;;;;;;;5013043;28;19976;-67
2023/08/04 03:27:53;;;;;;;;;;;;;;;;;;5014995;28;19925;-67
2023/08/04 03:30:20;;;;;;;;;;;;;;;;;;5013564;28;20319;-66
2023/08/04 03:32:47;;;;;;;;;;;;;;;;;;5013346;28;19925;-67
2023/08/04 03:35:14;;;;;;;;;;;;;;;;;;5014419;28;19926;-67
2023/08/04 03:37:41;;;;;;;;;;;;;;;;;;5013070;28;19992;-67
2023/08/04 03:40:08;;;;;;;;;;;;;;;;;;5010755;28;19929;-67
2023/08/04 03:42:35;;;;;;;;;;;;;;;;;;5014375;28;19972;-67
2023/08/04 03:45:02;;;;;;;;;;;;;;;;;;5013052;28;19925;-67
2023/08/04 03:47:29;;;;;;;;;;;;;;;;;;5011715;28;19925;-67
2023/08/04 03:49:56;;;;;;;;;;;;;;;;;;5012132;28;19979;-67
2023/08/04 03:52:23;;;;;;;;;;;;;;;;;;5012211;28;20024;-67
2023/08/04 03:54:50;;;;;;;;;;;;;;;;;;5010207;28;19926;-67
2023/08/04 03:57:18;;;;;;;;;;;;;;;;;;5013401;28;19925;-66
2023/08/04 03:59:44;;;;;;;;;;;;;;;;;;5013283;28;19977;-67
2023/08/04 04:02:12;;;;;;;;;;;;;;;;;;5013213;28;20373;-67
2023/08/04 04:04:39;;;;;;;;;;;;;;;;;;5009124;28;19925;-67
2023/08/04 04:07:06;;;;;;;;;;;;;;;;;;5012946;28;19964;-67
2023/08/04 04:09:33;;;;;;;;;;;;;;;;;;5008594;28;19933;-67
2023/08/04 04:12:00;;;;;;;;;;;;;;;;;;5011456;28;20036;-67
2023/08/04 04:14:27;;;;;;;;;;;;;;;;;;5013109;28;20400;-67
2023/08/04 04:16:54;;;;;;;;;;;;;;;;;;5010515;28;19962;-67
2023/08/04 04:19:21;;;;;;;;;;;;;;;;;;5012650;28;19930;-66
2023/08/04 04:21:48;;;;;;;;;;;;;;;;;;5010406;28;19926;-67
2023/08/04 04:24:15;;;;;;;;;;;;;;;;;;5009633;28;19925;-66
2023/08/04 04:26:42;;;;;;;;;;;;;;;;;;5014683;28;19933;-67
2023/08/04 04:29:09;;;;;;;;;;;;;;;;;;5013630;28;19925;-67
2023/08/04 04:31:36;;;;;;;;;;;;;;;;;;5011099;28;19976;-67
2023/08/04 04:34:03;;;;;;;;;;;;;;;;;;5013014;28;19964;-67
2023/08/04 04:36:31;;;;;;;;;;;;;;;;;;5011750;28;20435;-67
2023/08/04 04:38:58;;;;;;;;;;;;;;;;;;5012108;28;19926;-67
2023/08/04 04:41:25;;;;;;;;;;;;;;;;;;5011608;28;19925;-66
2023/08/04 04:43:52;;;;;;;;;;;;;;;;;;5011990;28;20367;-67
2023/08/04 04:46:19;;;;;;;;;;;;;;;;;;5012980;28;19925;-67
2023/08/04 04:48:46;;;;;;;;;;;;;;;;;;5011433;28;19979;-67
2023/08/04 04:51:14;;;;;;;;;;;;;;;;;;5011956;28;19926;-67
2023/08/04 04:53:41;;;;;;;;;;;;;;;;;;5011190;28;19926;-67
2023/08/04 04:56:08;;;;;;;;;;;;;;;;;;5011724;28;19925;-66
2023/08/04 04:58:35;;;;;;;;;;;;;;;;;;5011808;28;19979;-66
2023/08/04 05:01:02;;;;;;;;;;;;;;;;;;5008244;28;19979;-68
2023/08/04 05:03:29;;;;;;;;;;;;;;;;;;5013324;28;20307;-68
2023/08/04 05:05:56;;;;;;;;;;;;;;;;;;5012244;28;19925;-68
2023/08/04 05:08:23;;;;;;;;;;;;;;;;;;5011402;28;19926;-68
2023/08/04 05:10:49;;;;;;;;;;;;;;;;;;5011746;28;19926;-68
2023/08/04 05:13:16;;;;;;;;;;;;;;;;;;5010929;28;20008;-68
2023/08/04 05:15:43;;;;;;;;;;;;;;;;;;5012588;28;20018;-68
2023/08/04 05:18:10;;;;;;;;;;;;;;;;;;5009686;28;19988;-68
2023/08/04 05:20:37;;;;;;;;;;;;;;;;;;5011080;28;19925;-68
2023/08/04 05:23:04;;;;;;;;;;;;;;;;;;5000478;28;19925;-68
2023/08/04 05:25:31;;;;;;;;;;;;;;;;;;5009324;28;19926;-68
2023/08/04 05:27:58;;;;;;;;;;;;;;;;;;5009471;28;20423;-69
2023/08/04 05:30:25;;;;;;;;;;;;;;;;;;5004154;28;20048;-68
2023/08/04 05:32:52;;;;;;;;;;;;;;;;;;5014764;28;20072;-68
2023/08/04 05:35:19;;;;;;;;;;;;;;;;;;5010948;28;20045;-68
2023/08/04 05:37:46;;;;;;;;;;;;;;;;;;5010849;28;20004;-69
2023/08/04 05:40:13;;;;;;;;;;;;;;;;;;5011562;28;19929;-69
2023/08/04 05:42:40;;;;;;;;;;;;;;;;;;5011295;28;19934;-68
2023/08/04 05:45:08;;;;;;;;;;;;;;;;;;5009233;28;19925;-68
2023/08/04 05:47:35;;;;;;;;;;;;;;;;;;5011191;28;19980;-68
2023/08/04 05:50:02;;;;;;;;;;;;;;;;;;5009552;28;20327;-68
2023/08/04 05:52:29;;;;;;;;;;;;;;;;;;5012181;28;19932;-69
2023/08/04 05:54:56;;;;;;;;;;;;;;;;;;5005960;28;20024;-68
2023/08/04 05:57:23;;;;;;;;;;;;;;;;;;5011888;28;19948;-68
2023/08/04 05:59:50;;;;;;;;;;;;;;;;;;5010208;28;19937;-67
2023/08/04 06:02:17;;;;;;;;;;;;;;;;;;5011459;28;20336;-67
2023/08/04 06:04:44;;;;;;;;;;;;;;;;;;5014392;28;19925;-66
2023/08/04 06:07:11;;;;;;;;;;;;;;;;;;5015802;28;19925;-67
2023/08/04 06:09:38;;;;;;;;;;;;;;;;;;5013118;28;20529;-67
2023/08/04 06:12:05;;;;;;;;;;;;;;;;;;5014193;28;20395;-67
2023/08/04 06:14:32;;;;;;;;;;;;;;;;;;5015357;28;19995;-67
2023/08/04 06:16:59;;;;;;;;;;;;;;;;;;5016016;28;19932;-68
2023/08/04 06:19:27;;;;;;;;;;;;;;;;;;5013147;28;19932;-68
2023/08/04 06:21:54;;;;;;;;;;;;;;;;;;5011664;28;19925;-67
2023/08/04 06:24:22;;;;;;;;;;;;;;;;;;5014190;28;20016;-67
2023/08/04 06:26:49;;;;;;;;;;;;;;;;;;5014153;28;20419;-67
2023/08/04 06:29:16;;;;;;;;;;;;;;;;;;5015209;28;19925;-67
2023/08/04 06:31:43;;;;;;;;;;;;;;;;;;5011432;28;19971;-67
2023/08/04 06:34:11;;;;;;;;;;;;;;;;;;5013001;28;20403;-68
2023/08/04 06:36:38;;;;;;;;;;;;;;;;;;5014689;28;20353;-68
2023/08/04 06:39:05;;;;;;;;;;;;;;;;;;5014117;28;19926;-67
2023/08/04 06:41:32;;;;;;;;;;;;;;;;;;5013086;28;19925;-68
2023/08/04 06:43:59;;;;;;;;;;;;;;;;;;5014018;28;19926;-67
2023/08/04 06:46:26;;;;;;;;;;;;;;;;;;5004301;28;19930;-68
2023/08/04 06:48:53;;;;;;;;;;;;;;;;;;5005927;28;19980;-68
2023/08/04 06:51:20;;;;;;;;;;;;;;;;;;5008264;28;19940;-67
2023/08/04 06:53:47;;;;;;;;;;;;;;;;;;5008611;28;19926;-67
2023/08/04 06:56:14;;;;;;;;;;;;;;;;;;5012213;28;19926;-68
2023/08/04 06:58:41;;;;;;;;;;;;;;;;;;5014602;28;19933;-67
2023/08/04 07:01:08;;;;;;;;;;;;;;;;;;5022673;28;19930;-68
2023/08/04 07:03:35;;;;;;;;;;;;;;;;;;5008824;28;20410;-67
2023/08/04 07:06:02;;;;;;;;;;;;;;;;;;5010421;28;20321;-67
2023/08/04 07:08:29;;;;;;;;;;;;;;;;;;5010811;28;19925;-67
2023/08/04 07:10:56;;;;;;;;;;;;;;;;;;5013691;28;19933;-69
2023/08/04 07:13:24;;;;;;;;;;;;;;;;;;5012182;28;20625;-70
2023/08/04 07:15:51;;;;;;;;;;;;;;;;;;5004763;28;20018;-69
2023/08/04 07:18:18;;;;;;;;;;;;;;;;;;5007977;28;19977;-68
2023/08/04 07:20:45;;;;;;;;;;;;;;;;;;5006339;28;20331;-69
2023/08/04 07:23:15;;;;;;;;;;;;;;;;;;5009427;28;20278;-68
2023/08/04 07:25:42;;;;;;;;;;;;;;;;;;5003601;28;19980;-68
2023/08/04 07:28:09;;;;;;;;;;;;;;;;;;5007885;28;20012;-67
2023/08/04 07:30:37;;;;;;;;;;;;;;;;;;5005050;28;19940;-68
2023/08/04 07:33:06;;;;;;;;;;;;;;;;;;5011769;28;19925;-67
2023/08/04 07:35:33;;;;;;;;;;;;;;;;;;4998296;28;19933;-68
2023/08/04 07:38:00;;;;;;;;;;;;;;;;;;5005366;28;19926;-69
2023/08/04 07:40:27;;;;;;;;;;;;;;;;;;5005922;28;19926;-68
2023/08/04 07:42:54;;;;;;;;;;;;;;;;;;5003778;28;19925;-68
2023/08/04 07:45:21;;;;;;;;;;;;;;;;;;5008319;28;20018;-69
2023/08/04 07:47:48;;;;;;;;;;;;;;;;;;5005745;28;20352;-68
2023/08/04 07:50:17;;;;;;;;;;;;;;;;;;5004444;28;20001;-68
2023/08/04 07:52:44;;;;;;;;;;;;;;;;;;5002903;28;19933;-68
2023/08/04 07:55:11;;;;;;;;;;;;;;;;;;5007377;28;19926;-70
2023/08/04 07:57:38;;;;;;;;;;;;;;;;;;5006738;28;19926;-68
2023/08/04 08:00:05;;;;;;;;;;;;;;;;;;5004432;28;20004;-68
2023/08/04 08:02:32;;;;;;;;;;;;;;;;;;5004978;28;19984;-69
2023/08/04 08:04:59;;;;;;;;;;;;;;;;;;5004832;28;19926;-68
2023/08/04 08:07:26;;;;;;;;;;;;;;;;;;5010554;28;20352;-67
2023/08/04 08:09:53;;;;;;;;;;;;;;;;;;5010016;28;19925;-68
2023/08/04 08:12:20;;;;;;;;;;;;;;;;;;5012414;28;19925;-69
2023/08/04 08:14:47;;;;;;;;;;;;;;;;;;5009216;28;20017;-68
2023/08/04 08:17:14;;;;;;;;;;;;;;;;;;5007371;28;19996;-69
2023/08/04 08:19:41;;;;;;;;;;;;;;;;;;5009057;28;20508;-68
2023/08/04 08:22:08;;;;;;;;;;;;;;;;;;5006458;28;19929;-68
2023/08/04 08:24:35;;;;;;;;;;;;;;;;;;5011270;28;19972;-68
2023/08/04 08:27:03;;;;;;;;;;;;;;;;;;5003087;28;19926;-68
2023/08/04 08:29:30;;;;;;;;;;;;;;;;;;5008453;28;19925;-68
2023/08/04 08:31:57;;;;;;;;;;;;;;;;;;5006787;28;19980;-68
2023/08/04 08:34:24;;;;;;;;;;;;;;;;;;5005442;28;19988;-69
2023/08/04 08:36:51;;;;;;;;;;;;;;;;;;5012382;28;19929;-68
2023/08/04 08:39:18;;;;;;;;;;;;;;;;;;5005773;28;19929;-67
2023/08/04 08:41:45;;;;;;;;;;;;;;;;;;4999635;28;19925;-68
2023/08/04 08:44:12;;;;;;;;;;;;;;;;;;5003694;28;19934;-69
2023/08/04 08:46:39;;;;;;;;;;;;;;;;;;5001895;28;20019;-67
2023/08/04 08:49:06;;;;;;;;;;;;;;;;;;5006778;28;19944;-68
2023/08/04 08:51:33;;;;;;;;;;;;;;;;;;5002252;28;20024;-68
2023/08/04 08:54:00;;;;;;;;;;;;;;;;;;5011915;28;19926;-68
2023/08/04 08:56:28;;;;;;;;;;;;;;;;;;5006576;28;19983;-67
2023/08/04 08:58:55;;;;;;;;;;;;;;;;;;5009844;28;19925;-68
2023/08/04 09:01:22;;;;;;;;;;;;;;;;;;5007846;28;19926;-67
2023/08/04 09:03:49;;;;;;;;;;;;;;;;;;5008805;28;20284;-68
2023/08/04 09:06:16;;;;;;;;;;;;;;;;;;5006246;28;19933;-67
2023/08/04 09:08:43;;;;;;;;;;;;;;;;;;4997843;28;20356;-70
2023/08/04 09:11:10;;;;;;;;;;;;;;;;;;5001366;28;19953;-68
2023/08/04 09:13:37;;;;;;;;;;;;;;;;;;4994811;28;19925;-68
2023/08/04 09:16:04;;;;;;;;;;;;;;;;;;5005879;28;19929;-68
2023/08/04 09:18:31;;;;;;;;;;;;;;;;;;5005206;28;20324;-69
2023/08/04 09:20:59;;;;;;;;;;;;;;;;;;5000419;28;19926;-68
2023/08/04 09:23:26;;;;;;;;;;;;;;;;;;5006463;28;19925;-68
2023/08/04 09:25:53;;;;;;;;;;;;;;;;;;5009801;28;19933;-69
2023/08/04 09:28:20;;;;;;;;;;;;;;;;;;5006979;28;20320;-69
2023/08/04 09:30:48;;;;;;;;;;;;;;;;;;5006692;28;19933;-68
2023/08/04 09:33:15;;;;;;;;;;;;;;;;;;5007834;28;19929;-68
2023/08/04 09:35:42;;;;;;;;;;;;;;;;;;5004423;28;19936;-69
2023/08/04 09:38:09;;;;;;;;;;;;;;;;;;5001656;28;20000;-69
2023/08/04 09:40:36;;;;;;;;;;;;;;;;;;5001250;28;19934;-68
2023/08/04 09:43:03;;;;;;;;;;;;;;;;;;5001036;28;19925;-69
2023/08/04 09:45:30;;;;;;;;;;;;;;;;;;5000558;28;19926;-69
2023/08/04 09:47:57;;;;;;;;;;;;;;;;;;5000543;28;19968;-69
2023/08/04 09:50:24;;;;;;;;;;;;;;;;;;5007814;28;19979;-69
2023/08/04 09:52:51;;;;;;;;;;;;;;;;;;4998985;28;19929;-69
2023/08/04 09:55:18;;;;;;;;;;;;;;;;;;5007207;28;20381;-70
2023/08/04 09:57:48;;;;;;;;;;;;;;;;;;5003511;28;19972;-70
2023/08/04 10:00:15;;;;;;;;;;;;;;;;;;5007749;28;19930;-70
2023/08/04 10:02:42;;;;;;;;;;;;;;;;;;5007587;28;20445;-71
2023/08/04 10:05:09;;;;;;;;;;;;;;;;;;5005411;28;19961;-69
2023/08/04 10:07:36;;;;;;;;;;;;;;;;;;5006798;28;19925;-69
2023/08/04 10:10:06;;;;;;;;;;;;;;;;;;5005996;28;19925;-69
2023/08/04 10:12:33;;;;;;;;;;;;;;;;;;5022332;28;19925;-70
2023/08/04 10:15:00;;;;;;;;;;;;;;;;;;5007706;28;19925;-69
2023/08/04 10:17:27;;;;;;;;;;;;;;;;;;5009608;28;19929;-70
2023/08/04 10:19:54;;;;;;;;;;;;;;;;;;5004993;28;19925;-69
2023/08/04 10:22:21;;;;;;;;;;;;;;;;;;5009568;28;19980;-69
2023/08/04 10:24:48;;;;;;;;;;;;;;;;;;5010893;28;20428;-68
2023/08/04 10:27:15;;;;;;;;;;;;;;;;;;5005020;28;19933;-68
2023/08/04 10:29:42;;;;;;;;;;;;;;;;;;5002163;28;20356;-68
2023/08/04 10:32:09;;;;;;;;;;;;;;;;;;5005425;28;19925;-69
2023/08/04 10:34:37;;;;;;;;;;;;;;;;;;5003617;28;20281;-69
2023/08/04 10:37:05;;;;;;;;;;;;;;;;;;5003330;28;19925;-68
2023/08/04 10:39:32;;;;;;;;;;;;;;;;;;5003107;28;20116;-68
2023/08/04 10:41:59;;;;;;;;;;;;;;;;;;4997928;28;20490;-69
2023/08/04 10:44:26;;;;;;;;;;;;;;;;;;5009882;28;19925;-72
2023/08/04 10:46:53;;;;;;;;;;;;;;;;;;5009467;28;19933;-72
2023/08/04 10:49:20;;;;;;;;;;;;;;;;;;5011264;28;19941;-72
2023/08/04 10:51:49;;;;;;;;;;;;;;;;;;5010846;28;19937;-72
2023/08/04 10:54:16;;;;;;;;;;;;;;;;;;5012967;28;19925;-72
2023/08/04 10:56:43;;;;;;;;;;;;;;;;;;5010959;28;19930;-72
2023/08/04 10:59:10;;;;;;;;;;;;;;;;;;5013543;28;19980;-71
2023/08/04 11:01:40;;;;;;;;;;;;;;;;;;5008199;28;19929;-73
2023/08/04 11:04:07;;;;;;;;;;;;;;;;;;5005999;28;20365;-73
2023/08/04 11:06:34;;;;;;;;;;;;;;;;;;5005576;28;19941;-72
2023/08/04 11:09:01;;;;;;;;;;;;;;;;;;5011379;28;19996;-72
2023/08/04 11:11:28;;;;;;;;;;;;;;;;;;5008511;28;19940;-73
2023/08/04 11:13:55;;;;;;;;;;;;;;;;;;5007130;28;20397;-73
2023/08/04 11:16:22;;;;;;;;;;;;;;;;;;5005901;28;19980;-73
2023/08/04 11:18:50;;;;;;;;;;;;;;;;;;5005459;28;19925;-72
2023/08/04 11:21:17;;;;;;;;;;;;;;;;;;5004888;28;19940;-75
2023/08/04 11:23:44;;;;;;;;;;;;;;;;;;5004357;28;19932;-73
2023/08/04 11:26:11;;;;;;;;;;;;;;;;;;5011720;28;19933;-72
2023/08/04 11:28:38;;;;;;;;;;;;;;;;;;5010158;28;19929;-72
2023/08/04 11:31:05;;;;;;;;;;;;;;;;;;5003226;28;19929;-73
2023/08/04 11:33:32;;;;;;;;;;;;;;;;;;5004232;28;19936;-71
2023/08/04 11:35:59;;;;;;;;;;;;;;;;;;5008872;28;19932;-73
2023/08/04 11:38:26;;;;;;;;;;;;;;;;;;4997728;28;20023;-71
2023/08/04 11:40:53;;;;;;;;;;;;;;;;;;5004164;28;19925;-71
2023/08/04 11:43:21;;;;;;;;;;;;;;;;;;5005614;28;19925;-71
2023/08/04 11:45:48;;;;;;;;;;;;;;;;;;5006560;28;20447;-71
2023/08/04 11:48:15;;;;;;;;;;;;;;;;;;5008348;28;19932;-70
2023/08/04 11:50:42;;;;;;;;;;;;;;;;;;5008324;28;20388;-70
2023/08/04 11:53:09;;;;;;;;;;;;;;;;;;5010811;28;20311;-69
2023/08/04 11:55:36;;;;;;;;;;;;;;;;;;5010249;28;19985;-69
2023/08/04 11:58:03;;;;;;;;;;;;;;;;;;5009375;28;20296;-70
2023/08/04 12:00:30;;;;;;;;;;;;;;;;;;5005749;28;19929;-70
2023/08/04 12:02:57;;;;;;;;;;;;;;;;;;5012473;28;19941;-69
2023/08/04 12:05:24;;;;;;;;;;;;;;;;;;5007729;28;20286;-68
2023/08/04 12:07:53;;;;;;;;;;;;;;;;;;5011439;28;19933;-70
2023/08/04 12:10:21;;;;;;;;;;;;;;;;;;5003450;28;19932;-69
2023/08/04 12:12:48;;;;;;;;;;;;;;;;;;5008691;28;20297;-69
2023/08/04 12:15:15;;;;;;;;;;;;;;;;;;5010319;28;19926;-69
2023/08/04 12:17:42;;;;;;;;;;;;;;;;;;5012209;28;19925;-70
2023/08/04 12:20:09;;;;;;;;;;;;;;;;;;5007496;28;20329;-70
2023/08/04 12:22:36;;;;;;;;;;;;;;;;;;5010393;28;19929;-69
2023/08/04 12:25:03;;;;;;;;;;;;;;;;;;5011675;28;19925;-70
2023/08/04 12:27:30;;;;;;;;;;;;;;;;;;5008832;28;19979;-69
2023/08/04 12:29:57;;;;;;;;;;;;;;;;;;5013193;28;19925;-69
2023/08/04 12:32:24;;;;;;;;;;;;;;;;;;5011066;28;19925;-70
2023/08/04 12:34:52;;;;;;;;;;;;;;;;;;5008513;28;20391;-70
2023/08/04 12:37:19;;;;;;;;;;;;;;;;;;5008834;28;19925;-70
2023/08/04 12:39:46;;;;;;;;;;;;;;;;;;5005613;28;20328;-69
2023/08/04 12:42:13;;;;;;;;;;;;;;;;;;5009583;28;19932;-69
2023/08/04 12:44:40;;;;;;;;;;;;;;;;;;5003199;28;19987;-70
2023/08/04 12:47:09;;;;;;;;;;;;;;;;;;5009664;28;19933;-70
2023/08/04 12:49:36;;;;;;;;;;;;;;;;;;5007972;28;19991;-70
2023/08/04 12:52:03;;;;;;;;;;;;;;;;;;5004596;28;19937;-70
2023/08/04 12:54:30;;;;;;;;;;;;;;;;;;5002786;28;19982;-70
2023/08/04 12:56:57;;;;;;;;;;;;;;;;;;4997142;28;19945;-71
2023/08/04 12:59:24;;;;;;;;;;;;;;;;;;5000266;28;19925;-70
2023/08/04 13:01:51;;;;;;;;;;;;;;;;;;5005149;28;19926;-70
2023/08/04 13:04:18;;;;;;;;;;;;;;;;;;5010788;28;19929;-71
2023/08/04 13:06:45;;;;;;;;;;;;;;;;;;5005778;28;19925;-71
2023/08/04 13:09:12;;;;;;;;;;;;;;;;;;5010492;28;19980;-70
2023/08/04 13:11:39;;;;;;;;;;;;;;;;;;5010472;28;19926;-71
2023/08/04 13:14:07;;;;;;;;;;;;;;;;;;5001818;28;20370;-71
2023/08/04 13:16:34;;;;;;;;;;;;;;;;;;5002619;28;19925;-71
2023/08/04 13:19:03;;;;;;;;;;;;;;;;;;5001305;28;19929;-70
2023/08/04 13:21:30;;;;;;;;;;;;;;;;;;4997594;28;19926;-71
2023/08/04 13:23:57;;;;;;;;;;;;;;;;;;5008864;28;20404;-70
2023/08/04 13:26:24;;;;;;;;;;;;;;;;;;5005779;28;20362;-70
2023/08/04 13:28:52;;;;;;;;;;;;;;;;;;5002844;28;20373;-71
2023/08/04 13:31:19;;;;;;;;;;;;;;;;;;5003829;28;19925;-71
2023/08/04 13:33:46;;;;;;;;;;;;;;;;;;5001873;28;19944;-70
2023/08/04 13:36:13;;;;;;;;;;;;;;;;;;4995383;28;19926;-70
2023/08/04 13:38:42;;;;;;;;;;;;;;;;;;4992774;28;19926;-70
2023/08/04 13:41:09;;;;;;;;;;;;;;;;;;4996804;28;19936;-71
2023/08/04 13:43:36;;;;;;;;;;;;;;;;;;4999008;28;20020;-71
2023/08/04 13:46:04;;;;;;;;;;;;;;;;;;5003278;28;20015;-70
2023/08/04 13:48:31;;;;;;;;;;;;;;;;;;4996898;28;19930;-71
2023/08/04 13:50:58;;;;;;;;;;;;;;;;;;5002273;28;19972;-70
2023/08/04 13:53:25;;;;;;;;;;;;;;;;;;5000664;28;19926;-70
2023/08/04 13:55:52;;;;;;;;;;;;;;;;;;5001265;28;20365;-70
2023/08/04 13:58:19;;;;;;;;;;;;;;;;;;5000593;28;19930;-70
2023/08/04 14:00:46;;;;;;;;;;;;;;;;;;4993935;28;20250;-70
2023/08/04 14:03:16;;;;;;;;;;;;;;;;;;5002233;28;19929;-70
2023/08/04 14:05:44;;;;;;;;;;;;;;;;;;4999097;28;19932;-69
2023/08/04 14:08:11;;;;;;;;;;;;;;;;;;5000897;28;20441;-69
2023/08/04 14:10:40;;;;;;;;;;;;;;;;;;5000730;28;20300;-70
2023/08/04 14:13:07;;;;;;;;;;;;;;;;;;4996714;28;19930;-69
2023/08/04 14:15:34;;;;;;;;;;;;;;;;;;4998183;28;19964;-70
2023/08/04 14:18:01;;;;;;;;;;;;;;;;;;4997378;28;19925;-70
2023/08/04 14:20:28;;;;;;;;;;;;;;;;;;5001241;28;19926;-69
2023/08/04 14:22:55;;;;;;;;;;;;;;;;;;5009437;28;19963;-70
2023/08/04 14:25:22;;;;;;;;;;;;;;;;;;5002777;28;20400;-71
2023/08/04 14:27:49;;;;;;;;;;;;;;;;;;5007685;28;19925;-71
2023/08/04 14:30:17;;;;;;;;;;;;;;;;;;5001082;28;19932;-71
2023/08/04 14:32:44;;;;;;;;;;;;;;;;;;5006649;28;20017;-70
2023/08/04 14:35:12;;;;;;;;;;;;;;;;;;5000478;28;19926;-69
2023/08/04 14:37:39;;;;;;;;;;;;;;;;;;4998536;28;19929;-70
2023/08/04 14:40:06;;;;;;;;;;;;;;;;;;4999832;28;20423;-71
2023/08/04 14:42:33;;;;;;;;;;;;;;;;;;5005644;28;19971;-69
2023/08/04 14:45:00;;;;;;;;;;;;;;;;;;5009061;28;19936;-70
2023/08/04 14:47:27;;;;;;;;;;;;;;;;;;5003236;28;19964;-71
2023/08/04 14:49:54;;;;;;;;;;;;;;;;;;5009486;28;19926;-68
2023/08/04 14:52:21;;;;;;;;;;;;;;;;;;5005613;28;19933;-69
2023/08/04 14:54:49;;;;;;;;;;;;;;;;;;5002317;28;19933;-70
2023/08/04 14:57:16;;;;;;;;;;;;;;;;;;5008952;28;20292;-70
2023/08/04 14:59:43;;;;;;;;;;;;;;;;;;5009004;28;19969;-70
2023/08/04 15:02:10;;;;;;;;;;;;;;;;;;5010969;28;19925;-70
2023/08/04 15:04:37;;;;;;;;;;;;;;;;;;5011928;28;19929;-71
2023/08/04 15:07:05;;;;;;;;;;;;;;;;;;5010301;28;20316;-72
2023/08/04 15:09:32;;;;;;;;;;;;;;;;;;5010864;28;19972;-70
2023/08/04 15:11:59;;;;;;;;;;;;;;;;;;5005151;28;20016;-70
2023/08/04 15:14:27;;;;;;;;;;;;;;;;;;5001955;28;20332;-70
2023/08/04 15:16:54;;;;;;;;;;;;;;;;;;5006832;28;19973;-71
2023/08/04 15:19:21;;;;;;;;;;;;;;;;;;5005263;28;19932;-70
2023/08/04 15:21:50;;;;;;;;;;;;;;;;;;5006898;28;20691;-70
2023/08/04 15:24:17;;;;;;;;;;;;;;;;;;5011073;28;19933;-71
2023/08/04 15:26:44;;;;;;;;;;;;;;;;;;5009878;28;19979;-71
2023/08/04 15:29:11;;;;;;;;;;;;;;;;;;5011523;28;19925;-70
2023/08/04 15:31:38;;;;;;;;;;;;;;;;;;5008938;28;20008;-70
2023/08/04 15:34:05;;;;;;;;;;;;;;;;;;4998695;28;19968;-72
2023/08/04 15:36:32;;;;;;;;;;;;;;;;;;5008308;28;20366;-69
2023/08/04 15:38:59;;;;;;;;;;;;;;;;;;5005053;28;20332;-71
2023/08/04 15:41:27;;;;;;;;;;;;;;;;;;5005763;28;20110;-71
2023/08/04 15:43:54;;;;;;;;;;;;;;;;;;5009428;28;19936;-71
2023/08/04 15:46:21;;;;;;;;;;;;;;;;;;5009884;28;19925;-70
2023/08/04 15:48:48;;;;;;;;;;;;;;;;;;5013350;28;19926;-70
2023/08/04 15:51:15;;;;;;;;;;;;;;;;;;5011881;28;19933;-70
2023/08/04 15:53:42;;;;;;;;;;;;;;;;;;5014018;28;19925;-70
2023/08/04 15:56:09;;;;;;;;;;;;;;;;;;5007880;28;20372;-70
2023/08/04 15:58:36;;;;;;;;;;;;;;;;;;5013803;28;19987;-70
2023/08/04 16:01:03;;;;;;;;;;;;;;;;;;5007590;28;20028;-70
2023/08/04 16:03:30;;;;;;;;;;;;;;;;;;5010755;28;19957;-70
2023/08/04 16:05:58;;;;;;;;;;;;;;;;;;5012295;28;19925;-71
2023/08/04 16:08:25;;;;;;;;;;;;;;;;;;5013320;28;20015;-70
2023/08/04 16:10:53;;;;;;;;;;;;;;;;;;5008766;28;19926;-70
2023/08/04 16:13:21;;;;;;;;;;;;;;;;;;5012549;28;20067;-69
2023/08/04 16:15:48;;;;;;;;;;;;;;;;;;5005936;28;20007;-70
2023/08/04 16:18:15;;;;;;;;;;;;;;;;;;5005124;28;19940;-70
2023/08/04 16:20:42;;;;;;;;;;;;;;;;;;4997351;28;19926;-70
2023/08/04 16:23:10;;;;;;;;;;;;;;;;;;5007805;28;19930;-70
2023/08/04 16:25:37;;;;;;;;;;;;;;;;;;5002897;28;20020;-70
2023/08/04 16:28:04;;;;;;;;;;;;;;;;;;5004627;28;20008;-70
2023/08/04 16:30:31;;;;;;;;;;;;;;;;;;5011504;28;19925;-70
2023/08/04 16:32:58;;;;;;;;;;;;;;;;;;5008501;28;19926;-69
2023/08/04 16:35:25;;;;;;;;;;;;;;;;;;5012995;28;19925;-71
2023/08/04 16:37:52;;;;;;;;;;;;;;;;;;5012837;28;20277;-70
2023/08/04 16:40:19;;;;;;;;;;;;;;;;;;5011889;28;19980;-69
2023/08/04 16:42:46;;;;;;;;;;;;;;;;;;5009047;28;19929;-70
2023/08/04 16:45:13;;;;;;;;;;;;;;;;;;5001191;28;20361;-69